createdAt,value
2022-08-25T00:00:50.507Z,100993.50
2022-08-25T00:03:52.931Z,100992.34
2022-08-25T00:06:59.361Z,100992.03
2022-08-25T00:10:06.366Z,100983.19
2022-08-25T00:13:08.062Z,100992.41
2022-08-25T00:16:17.271Z,100996.34
2022-08-25T00:19:25.564Z,100991.59
2022-08-25T00:22:27.331Z,100991.25
2022-08-25T00:25:29.135Z,100996.03
2022-08-25T00:28:31.180Z,100989.63
2022-08-25T00:31:38.404Z,100989.31
2022-08-25T00:34:40.865Z,100985.56
2022-08-25T00:37:42.690Z,100986.22
2022-08-25T00:40:45.300Z,100986.06
2022-08-25T00:44:12.798Z,100985.72
2022-08-25T00:47:14.772Z,100985.41
2022-08-25T00:50:17.335Z,100982.28
2022-08-25T00:53:19.534Z,100981.78
2022-08-25T00:56:21.522Z,100983.91
2022-08-25T00:59:26.491Z,100980.94
2022-08-25T01:02:28.338Z,100980.44
2022-08-25T01:05:30.846Z,100980.13
2022-08-25T01:08:33.562Z,100977.81
2022-08-25T01:11:35.945Z,100977.31
2022-08-25T01:14:38.858Z,100976.81
2022-08-25T01:17:55.782Z,100976.31
2022-08-25T01:20:59.797Z,100975.16
2022-08-25T01:24:01.614Z,100978.13
2022-08-25T01:27:04.144Z,100974.34
2022-08-25T01:30:06.549Z,100975.78
2022-08-25T01:33:11.785Z,100972.81
2022-08-25T01:36:19.063Z,100973.97
2022-08-25T01:39:20.974Z,100981.66
2022-08-25T01:42:28.793Z,100982.28
2022-08-25T01:45:30.432Z,100977.53
2022-08-25T01:48:33.301Z,100972.75
2022-08-25T01:51:42.457Z,100977.81
2022-08-25T01:54:44.403Z,100982.72
2022-08-25T01:57:46.392Z,100980.41
2022-08-25T02:00:49.647Z,100985.00
2022-08-25T02:03:53.997Z,100986.91
2022-08-25T02:06:55.764Z,100985.25
2022-08-25T02:09:58.753Z,100968.91
2022-08-25T02:13:05.688Z,100977.72
2022-08-25T02:16:18.206Z,100978.72
2022-08-25T02:19:24.360Z,100977.84
2022-08-25T02:22:26.547Z,100974.75
2022-08-25T02:25:28.638Z,100978.34
2022-08-25T02:28:30.255Z,100971.78
2022-08-25T02:31:32.239Z,100972.78
2022-08-25T02:34:34.091Z,100967.69
2022-08-25T02:37:36.171Z,100975.03
2022-08-25T02:40:38.131Z,100977.81
2022-08-25T02:43:42.214Z,100971.41
2022-08-25T02:46:44.002Z,100967.94
2022-08-25T02:49:45.773Z,100970.88
2022-08-25T02:52:50.573Z,100975.28
2022-08-25T02:55:52.332Z,100970.88
2022-08-25T02:58:54.177Z,100961.22
2022-08-25T03:01:56.193Z,100966.44
2022-08-25T03:04:58.209Z,100969.38
2022-08-25T03:08:00.387Z,100966.28
2022-08-25T03:11:02.331Z,100968.22
2022-08-25T03:14:06.478Z,100967.53
2022-08-25T03:17:08.868Z,100963.59
2022-08-25T03:20:11.388Z,100959.34
2022-08-25T03:23:13.107Z,100963.09
2022-08-25T03:26:33.469Z,100957.34
2022-08-25T03:29:35.811Z,100955.03
2022-08-25T03:32:37.716Z,100962.19
2022-08-25T03:35:39.456Z,100963.31
2022-08-25T03:38:42.097Z,100962.50
2022-08-25T03:41:44.321Z,100955.78
2022-08-25T03:44:46.121Z,100958.59
2022-08-25T03:47:49.558Z,100955.28
2022-08-25T03:50:52.294Z,100955.28
2022-08-25T03:53:55.259Z,100953.81
2022-08-25T03:56:57.034Z,100956.69
2022-08-25T03:59:58.771Z,100957.69
2022-08-25T04:03:01.021Z,100955.69
2022-08-25T04:06:04.905Z,100963.00
2022-08-25T04:09:08.119Z,100959.88
2022-08-25T04:12:10.031Z,100963.47
2022-08-25T04:15:12.084Z,100971.47
2022-08-25T04:18:14.122Z,100960.34
2022-08-25T04:21:17.671Z,100969.13
2022-08-25T04:24:20.662Z,100966.84
2022-08-25T04:27:22.459Z,100964.53
2022-08-25T04:30:24.338Z,100959.31
2022-08-25T04:33:26.252Z,100954.88
2022-08-25T04:36:28.080Z,100948.53
2022-08-25T04:39:30.506Z,100949.88
2022-08-25T04:42:32.364Z,100951.38
2022-08-25T04:45:39.780Z,100949.25
2022-08-25T04:48:42.015Z,100943.88
2022-08-25T04:51:44.145Z,100950.47
2022-08-25T04:54:45.769Z,100947.69
2022-08-25T04:57:47.634Z,100942.31
2022-08-25T05:00:49.540Z,100954.94
2022-08-25T05:03:59.505Z,100952.50
2022-08-25T05:07:01.805Z,100953.84
2022-08-25T05:10:04.356Z,100963.69
2022-08-25T05:13:06.323Z,100960.63
2022-08-25T05:16:09.845Z,100960.31
2022-08-25T05:19:13.549Z,100964.25
2022-08-25T05:22:15.439Z,100964.94
2022-08-25T05:25:18.264Z,100959.38
2022-08-25T05:28:21.146Z,100966.94
2022-08-25T05:31:24.812Z,100959.91
2022-08-25T05:34:26.698Z,100966.63
2022-08-25T05:37:28.573Z,100955.69
2022-08-25T05:40:33.046Z,100956.03
2022-08-25T05:43:36.385Z,100953.78
2022-08-25T05:46:38.494Z,100947.41
2022-08-25T05:49:40.336Z,100953.00
2022-08-25T05:52:42.407Z,100955.13
2022-08-25T05:55:45.138Z,100945.34
2022-08-25T05:58:47.573Z,100944.88
2022-08-25T06:02:08.194Z,100949.50
2022-08-25T06:05:13.600Z,100952.44
2022-08-25T06:08:16.101Z,100951.16
2022-08-25T06:11:17.847Z,100948.03
2022-08-25T06:14:20.374Z,100944.13
2022-08-25T06:17:23.013Z,100940.88
2022-08-25T06:20:27.283Z,100940.38
2022-08-25T06:23:29.251Z,100936.16
2022-08-25T06:26:31.914Z,100946.16
2022-08-25T06:29:33.808Z,100950.09
2022-08-25T06:32:39.115Z,100956.34
2022-08-25T06:35:46.860Z,100953.88
2022-08-25T06:38:48.674Z,100951.28
2022-08-25T06:41:54.952Z,100949.66
2022-08-25T06:44:57.272Z,100942.91
2022-08-25T06:47:59.610Z,100939.47
2022-08-25T06:51:05.624Z,100939.50
2022-08-25T06:54:08.233Z,100931.78
2022-08-25T06:57:09.988Z,100943.25
2022-08-25T07:00:12.473Z,100934.91
2022-08-25T07:03:14.509Z,100941.94
2022-08-25T07:06:18.730Z,100936.81
2022-08-25T07:09:20.513Z,100927.78
2022-08-25T07:12:22.637Z,100927.75
2022-08-25T07:15:24.622Z,100920.50
2022-08-25T07:18:27.188Z,100932.28
2022-08-25T07:21:33.689Z,100926.16
2022-08-25T07:24:37.929Z,100925.53
2022-08-25T07:27:41.128Z,100924.50
2022-08-25T07:30:45.047Z,100920.69
2022-08-25T07:34:12.260Z,100918.00
2022-08-25T07:37:23.778Z,100929.09
2022-08-25T07:40:38.545Z,100937.41
2022-08-25T07:43:45.090Z,100939.63
2022-08-25T07:46:47.081Z,100932.97
2022-08-25T07:49:48.959Z,100934.22
2022-08-25T07:52:55.015Z,100939.06
2022-08-25T07:56:12.845Z,100938.47
2022-08-25T07:59:14.712Z,100942.31
2022-08-25T08:02:19.011Z,100938.88
2022-08-25T08:05:21.575Z,100944.16
2022-08-25T08:08:26.072Z,100938.78
2022-08-25T08:11:30.649Z,100926.03
2022-08-25T08:14:32.871Z,100929.00
2022-08-25T08:17:35.044Z,100930.38
2022-08-25T08:20:42.627Z,100928.53
2022-08-25T08:23:45.861Z,100928.88
2022-08-25T08:26:58.257Z,100925.72
2022-08-25T08:30:02.054Z,100917.88
2022-08-25T08:33:10.121Z,100923.25
2022-08-25T08:36:13.805Z,100922.13
2022-08-25T08:39:17.486Z,100918.53
2022-08-25T08:42:47.242Z,100921.75
2022-08-25T08:45:56.785Z,100916.56
2022-08-25T08:49:10.525Z,100909.19
2022-08-25T08:52:15.314Z,100909.72
2022-08-25T08:55:27.475Z,100910.88
2022-08-25T08:58:50.125Z,100904.06
2022-08-25T09:01:59.427Z,100900.69
2022-08-25T09:05:08.674Z,100902.16
2022-08-25T09:08:13.584Z,100898.38
2022-08-25T09:11:37.475Z,100899.19
2022-08-25T09:14:57.460Z,100884.41
2022-08-25T09:18:12.118Z,100878.09
2022-08-25T09:21:23.811Z,100886.47
2022-08-25T09:24:41.631Z,100879.13
2022-08-25T09:28:08.490Z,100872.94
2022-08-25T09:31:38.894Z,100874.50
2022-08-25T09:34:41.783Z,100865.44
2022-08-25T09:37:56.088Z,100867.97
2022-08-25T09:41:02.969Z,100859.22
2022-08-25T09:44:05.458Z,100865.38
2022-08-25T09:47:28.060Z,100857.75
2022-08-25T09:50:36.727Z,100861.06
2022-08-25T09:53:50.517Z,100857.03
2022-08-25T09:56:58.724Z,100853.41
2022-08-25T10:00:19.715Z,100854.22
2022-08-25T10:03:24.756Z,100850.41
2022-08-25T10:06:34.074Z,100848.25
2022-08-25T10:09:42.176Z,100847.56
2022-08-25T10:12:51.456Z,100849.66
2022-08-25T10:16:20.130Z,100836.97
2022-08-25T10:19:27.914Z,100838.41
2022-08-25T10:22:33.007Z,100827.28
2022-08-25T10:25:34.985Z,100828.28
2022-08-25T10:29:00.292Z,100818.44
2022-08-25T10:32:26.181Z,100807.50
2022-08-25T10:35:45.547Z,100803.81
2022-08-25T10:39:02.093Z,100796.69
2022-08-25T10:42:26.076Z,100780.94
2022-08-25T10:45:45.751Z,100791.50
2022-08-25T10:49:18.804Z,100783.13
2022-08-25T10:52:42.892Z,100774.91
2022-08-25T10:56:03.213Z,100778.16
2022-08-25T10:59:27.916Z,100763.66
2022-08-25T11:02:57.617Z,100761.63
2022-08-25T11:06:05.883Z,100760.25
2022-08-25T11:09:12.554Z,100748.19
2022-08-25T11:12:22.766Z,100750.84
2022-08-25T11:15:36.951Z,100756.31
2022-08-25T11:18:46.311Z,100735.75
2022-08-25T11:22:28.313Z,100729.06
2022-08-25T11:25:35.499Z,100727.31
2022-08-25T11:29:18.193Z,100721.47
2022-08-25T11:32:22.893Z,100717.25
2022-08-25T11:35:39.087Z,100718.88
2022-08-25T11:39:18.407Z,100723.47
2022-08-25T11:42:51.605Z,100723.09
2022-08-25T11:46:12.464Z,100714.91
2022-08-25T11:49:53.207Z,100711.53
2022-08-25T11:52:58.223Z,100699.66
2022-08-25T11:56:04.594Z,100712.44
2022-08-25T11:59:06.831Z,100696.47
2022-08-25T12:02:28.007Z,100702.03
2022-08-25T12:05:51.028Z,100698.84
2022-08-25T12:09:03.466Z,100701.16
2022-08-25T12:12:31.694Z,100701.06
2022-08-25T12:15:43.039Z,100696.25
2022-08-25T12:18:46.353Z,100689.53
2022-08-25T12:21:48.644Z,100700.22
2022-08-25T12:24:55.116Z,100695.97
2022-08-25T12:28:36.034Z,100696.22
2022-08-25T12:32:04.340Z,100689.91
2022-08-25T12:35:36.677Z,100679.50
2022-08-25T12:38:43.691Z,100674.38
2022-08-25T12:45:21.273Z,100665.28
2022-08-25T12:48:29.270Z,100662.25
2022-08-25T12:51:48.975Z,100665.44
2022-08-25T12:55:00.753Z,100664.25
2022-08-25T12:58:05.139Z,100657.25
2022-08-25T13:01:35.709Z,100650.97
2022-08-25T13:04:57.176Z,100649.13
2022-08-25T13:08:15.117Z,100642.16
2022-08-25T13:11:58.824Z,100633.31
2022-08-25T13:15:01.180Z,100640.00
2022-08-25T13:18:25.286Z,100631.97
2022-08-25T13:21:39.788Z,100626.34
2022-08-25T13:24:43.834Z,100628.75
2022-08-25T13:28:03.517Z,100623.03
2022-08-25T13:31:10.437Z,100625.59
2022-08-25T13:34:19.777Z,100620.50
2022-08-25T13:37:32.380Z,100614.50
2022-08-25T13:40:36.822Z,100603.03
2022-08-25T13:43:39.799Z,100610.22
2022-08-25T13:46:43.862Z,100610.22
2022-08-25T13:49:47.803Z,100607.84
2022-08-25T13:52:55.753Z,100609.97
2022-08-25T13:56:00.820Z,100609.44
2022-08-25T13:59:06.564Z,100599.72
2022-08-25T14:02:19.318Z,100604.44
2022-08-25T14:05:43.142Z,100594.13
2022-08-25T14:08:59.972Z,100591.47
2022-08-25T14:12:01.966Z,100591.50
2022-08-25T14:15:18.527Z,100592.59
2022-08-25T14:18:26.962Z,100589.84
2022-08-25T14:21:31.431Z,100583.91
2022-08-25T14:24:40.713Z,100575.41
2022-08-25T14:28:06.923Z,100574.97
2022-08-25T14:31:39.588Z,100564.88
2022-08-25T14:34:42.765Z,100564.88
2022-08-25T14:37:45.147Z,100554.25
2022-08-25T14:40:48.054Z,100562.00
2022-08-25T14:43:50.363Z,100557.06
2022-08-25T14:46:56.732Z,100559.19
2022-08-25T14:49:58.856Z,100557.56
2022-08-25T14:53:00.973Z,100553.41
2022-08-25T14:56:08.387Z,100543.31
2022-08-25T14:59:12.136Z,100555.13
2022-08-25T15:02:19.924Z,100544.59
2022-08-25T15:05:28.241Z,100542.06
2022-08-25T15:08:48.910Z,100535.63
2022-08-25T15:11:58.125Z,100526.03
2022-08-25T15:15:01.885Z,100534.16
2022-08-25T15:18:04.488Z,100529.31
2022-08-25T15:21:06.781Z,100531.84
2022-08-25T15:24:10.180Z,100520.97
2022-08-25T15:27:13.885Z,100513.88
2022-08-25T15:30:16.043Z,100512.09
2022-08-25T15:33:18.189Z,100523.53
2022-08-25T15:36:24.588Z,100512.53
2022-08-25T15:39:27.314Z,100505.69
2022-08-25T15:42:29.195Z,100512.09
2022-08-25T15:45:31.743Z,100506.31
2022-08-25T15:48:35.744Z,100503.19
2022-08-25T15:51:38.400Z,100496.28
2022-08-25T15:54:40.377Z,100504.59
2022-08-25T15:57:43.668Z,100496.00
2022-08-25T16:00:56.006Z,100495.97
2022-08-25T16:03:59.285Z,100483.56
2022-08-25T16:07:01.234Z,100483.28
2022-08-25T16:10:04.301Z,100484.06
2022-08-25T16:13:06.960Z,100485.06
2022-08-25T16:16:10.765Z,100478.25
2022-08-25T16:19:15.194Z,100476.56
2022-08-25T16:22:17.534Z,100472.22
2022-08-25T16:25:19.420Z,100475.88
2022-08-25T16:28:24.445Z,100463.03
2022-08-25T16:31:26.917Z,100466.72
2022-08-25T16:34:30.698Z,100470.25
2022-08-25T16:37:35.120Z,100471.16
2022-08-25T16:40:40.211Z,100471.22
2022-08-25T16:43:44.153Z,100462.28
2022-08-25T16:46:46.247Z,100467.47
2022-08-25T16:49:49.102Z,100465.16
2022-08-25T16:53:09.266Z,100460.38
2022-08-25T16:56:11.582Z,100457.41
2022-08-25T16:59:14.577Z,100458.19
2022-08-25T17:02:16.573Z,100453.25
2022-08-25T17:05:20.774Z,100460.84
2022-08-25T17:08:29.009Z,100455.88
2022-08-25T17:11:35.126Z,100459.94
2022-08-25T17:14:36.771Z,100459.00
2022-08-25T17:17:38.453Z,100463.94
2022-08-25T17:20:43.318Z,100458.47
2022-08-25T17:23:45.372Z,100460.69
2022-08-25T17:26:51.044Z,100459.53
2022-08-25T17:29:52.664Z,100462.63
2022-08-25T17:32:54.603Z,100467.94
2022-08-25T17:35:57.568Z,100461.41
2022-08-25T17:38:59.275Z,100459.75
2022-08-25T17:42:00.875Z,100463.47
2022-08-25T17:45:03.794Z,100461.28
2022-08-25T17:48:08.761Z,100457.75
2022-08-25T17:51:11.209Z,100460.59
2022-08-25T17:54:14.105Z,100464.47
2022-08-25T17:57:16.297Z,100460.50
2022-08-25T18:00:20.819Z,100457.63
2022-08-25T18:03:22.806Z,100464.19
2022-08-25T18:06:29.441Z,100456.41
2022-08-25T18:09:32.164Z,100463.25
2022-08-25T18:12:34.172Z,100473.22
2022-08-25T18:15:36.084Z,100467.50
2022-08-25T18:18:39.310Z,100469.97
2022-08-25T18:21:41.383Z,100470.97
2022-08-25T18:24:45.882Z,100472.81
2022-08-25T18:27:47.516Z,100468.63
2022-08-25T18:30:49.279Z,100469.28
2022-08-25T18:33:52.263Z,100474.78
2022-08-25T18:36:54.033Z,100480.28
2022-08-25T18:40:15.658Z,100477.34
2022-08-25T18:43:17.665Z,100479.00
2022-08-25T18:46:22.753Z,100474.66
2022-08-25T18:49:26.785Z,100486.66
2022-08-25T18:52:30.459Z,100484.16
2022-08-25T18:55:33.679Z,100490.63
2022-08-25T18:58:36.087Z,100486.06
2022-08-25T19:01:37.955Z,100483.09
2022-08-25T19:04:40.698Z,100486.00
2022-08-25T19:07:47.534Z,100491.56
2022-08-25T19:10:54.340Z,100492.47
2022-08-25T19:13:56.333Z,100488.59
2022-08-25T19:16:58.694Z,100484.16
2022-08-25T19:20:01.531Z,100485.84
2022-08-25T19:23:03.775Z,100492.00
2022-08-25T19:26:13.934Z,100486.31
2022-08-25T19:29:19.839Z,100483.06
2022-08-25T19:32:21.638Z,100480.50
2022-08-25T19:35:39.744Z,100482.16
2022-08-25T19:38:44.130Z,100487.06
2022-08-25T19:41:46.463Z,100483.19
2022-08-25T19:44:48.615Z,100483.63
2022-08-25T19:47:51.809Z,100478.97
2022-08-25T19:50:56.105Z,100496.50
2022-08-25T19:54:01.191Z,100485.75
2022-08-25T19:57:07.888Z,100488.41
2022-08-25T20:00:25.574Z,100492.47
2022-08-25T20:03:27.612Z,100492.31
2022-08-25T20:06:31.705Z,100486.22
2022-08-25T20:09:39.616Z,100496.22
2022-08-25T20:12:44.789Z,100494.41
2022-08-25T20:15:47.313Z,100497.50
2022-08-25T20:18:49.505Z,100497.91
2022-08-25T20:21:51.256Z,100497.50
2022-08-25T20:24:58.592Z,100495.66
2022-08-25T20:28:01.662Z,100496.91
2022-08-25T20:31:03.446Z,100498.97
2022-08-25T20:34:05.835Z,100496.09
2022-08-25T20:37:08.343Z,100499.59
2022-08-25T20:40:12.565Z,100500.19
2022-08-25T20:43:14.687Z,100497.78
2022-08-25T20:46:16.980Z,100494.72
2022-08-25T20:49:20.318Z,100505.91
2022-08-25T20:52:22.007Z,100507.38
2022-08-25T20:55:24.155Z,100504.31
2022-08-25T20:58:26.498Z,100507.16
2022-08-25T21:01:38.001Z,100512.03
2022-08-25T21:04:48.959Z,100511.66
2022-08-25T21:07:52.699Z,100510.44
2022-08-25T21:10:54.425Z,100513.50
2022-08-25T21:13:58.468Z,100511.47
2022-08-25T21:17:00.600Z,100511.03
2022-08-25T21:20:05.605Z,100509.03
2022-08-25T21:23:08.399Z,100510.66
2022-08-25T21:26:31.460Z,100504.78
2022-08-25T21:29:33.911Z,100509.66
2022-08-25T21:32:35.823Z,100510.88
2022-08-25T21:35:40.639Z,100506.19
2022-08-25T21:38:44.728Z,100508.44
2022-08-25T21:41:47.133Z,100505.38
2022-08-25T21:44:50.633Z,100505.59
2022-08-25T21:47:52.459Z,100508.41
2022-08-25T21:51:09.137Z,100502.31
2022-08-25T21:54:18.171Z,100508.59
2022-08-25T21:57:26.014Z,100500.69
2022-08-25T22:00:27.791Z,100510.44
2022-08-25T22:03:29.642Z,100502.50
2022-08-25T22:06:32.029Z,100502.13
2022-08-25T22:09:35.439Z,100503.53
2022-08-25T22:13:32.275Z,100509.22
2022-08-25T22:16:59.578Z,100496.63
2022-08-25T22:20:01.732Z,100497.44
2022-08-25T22:23:03.427Z,100492.97
2022-08-25T22:26:05.601Z,100489.31
2022-08-25T22:29:07.816Z,100481.38
2022-08-25T22:32:09.819Z,100480.53
2022-08-25T22:35:15.389Z,100477.28
2022-08-25T22:38:20.243Z,100475.44
2022-08-25T22:41:24.087Z,100479.88
2022-08-25T22:44:26.896Z,100474.41
2022-08-25T22:47:28.506Z,100476.78
2022-08-25T22:50:31.366Z,100473.94
2022-08-25T22:53:34.472Z,100478.81
2022-08-25T22:56:39.044Z,100474.75
2022-08-25T23:00:37.385Z,100469.03
2022-08-25T23:04:29.967Z,100476.34
2022-08-25T23:07:40.191Z,100472.25
2022-08-25T23:10:49.335Z,100479.56
2022-08-25T23:13:55.257Z,100473.69
2022-08-25T23:16:57.233Z,100474.31
2022-08-25T23:19:59.727Z,100465.56
2022-08-25T23:23:02.839Z,100461.13
2022-08-25T23:26:05.201Z,100466.00
2022-08-25T23:29:07.403Z,100465.81
2022-08-25T23:32:20.797Z,100466.41
2022-08-25T23:35:23.626Z,100470.88
2022-08-25T23:38:25.420Z,100460.31
2022-08-25T23:41:29.905Z,100468.44
2022-08-25T23:44:32.260Z,100462.34
2022-08-25T23:47:33.927Z,100453.44
2022-08-25T23:50:45.952Z,100452.63
2022-08-25T23:53:47.740Z,100457.28
2022-08-25T23:56:51.871Z,100453.22
2022-08-25T23:59:54.289Z,100448.94
